createdAt,value
2022-09-24T00:02:14.064Z,99.80
2022-09-24T00:04:42.683Z,99.80
2022-09-24T00:07:11.404Z,99.90
2022-09-24T00:09:39.950Z,99.60
2022-09-24T00:12:08.506Z,99.60
2022-09-24T00:14:40.750Z,99.50
2022-09-24T00:17:09.254Z,99.50
2022-09-24T00:19:37.813Z,99.50
2022-09-24T00:22:06.447Z,99.50
2022-09-24T00:24:52.948Z,99.50
2022-09-24T00:27:21.595Z,99.50
2022-09-24T00:29:50.131Z,99.50
2022-09-24T00:32:18.818Z,99.60
2022-09-24T00:34:47.377Z,99.60
2022-09-24T00:37:15.943Z,99.70
2022-09-24T00:39:44.775Z,99.80
2022-09-24T00:42:15.303Z,99.80
2022-09-24T00:44:47.046Z,99.80
2022-09-24T00:47:33.953Z,99.80
2022-09-24T00:50:23.128Z,99.80
2022-09-24T00:52:54.497Z,99.80
2022-09-24T00:55:24.781Z,99.90
2022-09-24T00:58:00.310Z,99.80
2022-09-24T01:00:29.346Z,99.90
2022-09-24T01:03:07.284Z,99.90
2022-09-24T01:05:37.890Z,99.90
2022-09-24T01:08:08.359Z,99.90
2022-09-24T01:10:52.762Z,99.90
2022-09-24T01:13:43.126Z,99.80
2022-09-24T01:16:16.376Z,99.80
2022-09-24T01:18:49.611Z,99.90
2022-09-24T01:21:18.191Z,99.90
2022-09-24T01:23:55.687Z,99.90
2022-09-24T01:26:30.366Z,99.80
2022-09-24T01:29:07.223Z,99.90
2022-09-24T01:31:47.985Z,99.80
2022-09-24T01:34:20.355Z,99.90
2022-09-24T01:36:50.720Z,99.90
2022-09-24T01:39:20.132Z,99.80
2022-09-24T01:41:49.321Z,99.80
2022-09-24T01:44:19.571Z,99.80
2022-09-24T01:46:48.208Z,99.80
2022-09-24T01:49:16.932Z,99.70
2022-09-24T01:51:49.902Z,99.70
2022-09-24T01:54:21.829Z,99.70
2022-09-24T01:56:53.067Z,99.60
2022-09-24T01:59:26.235Z,99.60
2022-09-24T02:01:59.483Z,99.70
2022-09-24T02:04:29.446Z,99.50
2022-09-24T02:06:59.531Z,99.50
2022-09-24T02:09:31.915Z,99.50
2022-09-24T02:12:04.340Z,99.40
2022-09-24T02:14:34.396Z,99.30
2022-09-24T02:17:04.949Z,99.30
2022-09-24T02:19:36.392Z,99.20
2022-09-24T02:22:08.146Z,99.20
2022-09-24T02:24:36.703Z,99.20
2022-09-24T02:27:05.310Z,99.10
2022-09-24T02:29:33.821Z,99.10
2022-09-24T02:32:03.377Z,99.10
2022-09-24T02:34:35.417Z,99.10
2022-09-24T02:37:09.256Z,99.10
2022-09-24T02:39:37.788Z,99.10
2022-09-24T02:42:07.500Z,99.10
2022-09-24T02:44:37.700Z,99.00
2022-09-24T02:47:06.503Z,99.00
2022-09-24T02:49:35.076Z,99.00
2022-09-24T02:52:04.584Z,98.90
2022-09-24T02:54:33.464Z,98.80
2022-09-24T02:57:02.106Z,98.70
2022-09-24T02:59:30.667Z,98.60
2022-09-24T03:01:59.321Z,98.50
2022-09-24T03:04:27.892Z,98.40
2022-09-24T03:06:56.617Z,98.40
2022-09-24T03:09:25.153Z,98.40
2022-09-24T03:11:53.668Z,98.30
2022-09-24T03:14:22.299Z,98.30
2022-09-24T03:16:50.815Z,98.10
2022-09-24T03:19:19.340Z,98.10
2022-09-24T03:21:48.447Z,98.10
2022-09-24T03:24:16.988Z,98.10
2022-09-24T03:26:46.470Z,97.90
2022-09-24T03:29:15.063Z,97.90
2022-09-24T03:31:43.619Z,97.70
2022-09-24T03:34:12.240Z,97.60
2022-09-24T03:36:40.778Z,97.60
2022-09-24T03:39:09.296Z,97.30
2022-09-24T03:41:37.844Z,97.20
2022-09-24T03:44:06.426Z,97.20
2022-09-24T03:46:35.024Z,97.30
2022-09-24T03:49:03.536Z,97.00
2022-09-24T03:51:32.096Z,97.10
2022-09-24T03:54:00.864Z,97.10
2022-09-24T03:56:29.384Z,96.70
2022-09-24T03:58:58.075Z,96.40
2022-09-24T04:01:26.672Z,96.40
2022-09-24T04:03:55.490Z,96.30
2022-09-24T04:06:26.107Z,96.40
2022-09-24T04:08:54.778Z,95.70
2022-09-24T04:11:23.588Z,96.00
2022-09-24T04:13:52.591Z,96.50
2022-09-24T04:16:21.178Z,95.30
2022-09-24T04:18:49.977Z,95.80
2022-09-24T04:21:18.548Z,96.10
2022-09-24T04:23:47.089Z,95.80
2022-09-24T04:26:16.396Z,96.40
2022-09-24T04:28:45.023Z,96.20
2022-09-24T04:31:13.575Z,96.10
2022-09-24T04:33:42.143Z,96.00
2022-09-24T04:36:10.652Z,95.80
2022-09-24T04:38:39.155Z,95.40
2022-09-24T04:41:11.036Z,95.40
2022-09-24T04:43:39.811Z,95.50
2022-09-24T04:46:09.710Z,95.40
2022-09-24T04:48:40.849Z,95.10
2022-09-24T04:51:09.999Z,93.90
2022-09-24T04:53:39.001Z,94.50
2022-09-24T04:56:12.434Z,94.60
2022-09-24T04:58:41.063Z,93.60
2022-09-24T05:01:10.122Z,93.90
2022-09-24T05:03:38.840Z,94.10
2022-09-24T05:06:07.460Z,94.20
2022-09-24T05:08:35.966Z,93.90
2022-09-24T05:11:04.642Z,94.10
2022-09-24T05:13:33.159Z,94.00
2022-09-24T05:16:02.110Z,93.50
2022-09-24T05:18:30.836Z,93.00
2022-09-24T05:20:59.523Z,93.40
2022-09-24T05:23:28.915Z,92.60
2022-09-24T05:26:16.912Z,93.10
2022-09-24T05:28:45.407Z,92.80
2022-09-24T05:31:16.396Z,93.50
2022-09-24T05:33:45.559Z,93.70
2022-09-24T05:36:14.091Z,93.70
2022-09-24T05:38:42.654Z,93.80
2022-09-24T05:41:11.952Z,93.70
2022-09-24T05:43:40.503Z,93.70
2022-09-24T05:46:09.236Z,93.80
2022-09-24T05:48:37.885Z,94.00
2022-09-24T05:51:06.598Z,93.90
2022-09-24T05:53:36.100Z,93.80
2022-09-24T05:56:04.686Z,93.80
2022-09-24T05:58:33.331Z,93.10
2022-09-24T06:01:04.404Z,92.30
2022-09-24T06:03:33.227Z,93.10
2022-09-24T06:06:03.262Z,92.40
2022-09-24T06:08:33.235Z,93.00
2022-09-24T06:11:02.604Z,92.90
2022-09-24T06:13:34.592Z,92.70
2022-09-24T06:16:07.633Z,92.40
2022-09-24T06:21:22.835Z,92.10
2022-09-24T06:23:51.357Z,91.80
2022-09-24T06:26:20.069Z,92.50
2022-09-24T06:28:48.719Z,92.40
2022-09-24T06:31:17.907Z,92.60
2022-09-24T06:33:46.813Z,92.40
2022-09-24T06:36:15.926Z,92.60
2022-09-24T06:38:46.588Z,92.60
2022-09-24T06:41:15.545Z,92.40
2022-09-24T06:43:44.440Z,92.70
2022-09-24T06:46:13.920Z,92.70
2022-09-24T06:48:43.823Z,92.70
2022-09-24T06:51:12.633Z,92.50
2022-09-24T06:53:41.436Z,92.50
2022-09-24T06:56:10.521Z,92.50
2022-09-24T06:58:39.380Z,92.10
2022-09-24T07:01:08.337Z,92.30
2022-09-24T07:03:37.584Z,91.40
2022-09-24T07:06:07.516Z,92.40
2022-09-24T07:08:36.566Z,91.80
2022-09-24T07:11:05.531Z,92.00
2022-09-24T07:13:34.472Z,92.00
2022-09-24T07:16:03.417Z,91.60
2022-09-24T07:18:32.327Z,92.40
2022-09-24T07:21:01.161Z,92.00
2022-09-24T07:23:29.975Z,92.20
2022-09-24T07:25:59.091Z,92.30
2022-09-24T07:28:28.078Z,92.30
2022-09-24T07:31:01.167Z,92.30
2022-09-24T07:33:30.116Z,91.90
2022-09-24T07:35:59.022Z,92.20
2022-09-24T07:38:28.204Z,92.10
2022-09-24T07:40:59.478Z,92.10
2022-09-24T07:43:30.067Z,92.00
2022-09-24T07:45:59.360Z,91.70
2022-09-24T07:48:28.171Z,91.90
2022-09-24T07:50:57.212Z,91.30
2022-09-24T07:53:26.119Z,91.20
2022-09-24T07:55:55.050Z,91.30
2022-09-24T07:58:23.835Z,91.70
2022-09-24T08:00:52.718Z,91.70
2022-09-24T08:03:21.593Z,91.40
2022-09-24T08:05:50.579Z,91.70
2022-09-24T08:08:21.780Z,91.40
2022-09-24T08:10:50.667Z,91.80
2022-09-24T08:13:21.667Z,91.60
2022-09-24T08:16:00.808Z,91.40
2022-09-24T08:18:30.503Z,91.70
2022-09-24T08:21:01.394Z,91.60
2022-09-24T08:23:30.221Z,91.70
2022-09-24T08:25:59.077Z,91.60
2022-09-24T08:28:28.223Z,91.40
2022-09-24T08:31:01.937Z,91.10
2022-09-24T08:33:33.268Z,91.30
2022-09-24T08:36:02.975Z,91.00
2022-09-24T08:38:31.786Z,91.10
2022-09-24T08:41:02.197Z,90.80
2022-09-24T08:43:48.781Z,90.70
2022-09-24T08:46:41.249Z,91.00
2022-09-24T08:49:13.702Z,91.20
2022-09-24T08:51:55.857Z,91.20
2022-09-24T08:54:25.628Z,91.30
2022-09-24T08:56:57.182Z,90.90
2022-09-24T08:59:31.573Z,90.90
2022-09-24T09:02:14.675Z,91.30
2022-09-24T09:04:43.518Z,90.80
2022-09-24T09:07:24.303Z,90.80
2022-09-24T09:09:57.807Z,91.00
2022-09-24T09:12:36.146Z,90.90
2022-09-24T09:15:08.454Z,90.70
2022-09-24T09:17:49.707Z,90.90
2022-09-24T09:20:22.677Z,91.10
2022-09-24T09:22:52.343Z,91.20
2022-09-24T09:25:21.101Z,91.10
2022-09-24T09:28:04.193Z,91.30
2022-09-24T09:30:44.707Z,91.20
2022-09-24T09:33:21.144Z,91.30
2022-09-24T09:35:55.779Z,91.20
2022-09-24T09:38:24.779Z,91.20
2022-09-24T09:41:03.827Z,90.80
2022-09-24T09:43:32.877Z,90.90
2022-09-24T09:46:17.165Z,91.00
2022-09-24T09:48:46.421Z,91.10
2022-09-24T09:51:22.014Z,91.20
2022-09-24T09:54:02.068Z,91.20
2022-09-24T09:56:35.441Z,91.10
2022-09-24T09:59:08.252Z,91.10
2022-09-24T10:01:39.024Z,91.20
2022-09-24T10:04:08.226Z,91.30
2022-09-24T10:06:37.680Z,90.90
2022-09-24T10:09:21.868Z,90.80
2022-09-24T10:11:51.052Z,90.90
2022-09-24T10:14:21.903Z,91.00
2022-09-24T10:16:53.736Z,91.40
2022-09-24T10:19:24.494Z,91.30
2022-09-24T10:21:55.150Z,91.30
2022-09-24T10:24:27.819Z,91.40
2022-09-24T10:26:56.840Z,91.40
2022-09-24T10:29:45.205Z,91.60
2022-09-24T10:32:18.703Z,91.70
2022-09-24T10:34:57.791Z,91.80
2022-09-24T10:37:27.201Z,91.80
2022-09-24T10:40:03.379Z,91.80
2022-09-24T10:42:32.532Z,91.70
2022-09-24T10:45:05.823Z,91.70
2022-09-24T10:47:54.917Z,91.60
2022-09-24T10:50:27.486Z,91.80
2022-09-24T10:52:59.582Z,91.80
2022-09-24T10:55:55.344Z,91.70
2022-09-24T10:58:26.983Z,91.80
2022-09-24T11:00:59.995Z,92.40
2022-09-24T11:03:35.011Z,92.70
2022-09-24T11:06:22.197Z,92.90
2022-09-24T11:09:05.936Z,92.80
2022-09-24T11:11:41.350Z,92.90
2022-09-24T11:14:10.240Z,93.20
2022-09-24T11:16:40.236Z,93.20
2022-09-24T11:19:20.923Z,93.10
2022-09-24T11:22:04.953Z,93.10
2022-09-24T11:24:44.131Z,93.00
2022-09-24T11:27:22.442Z,93.00
2022-09-24T11:30:04.496Z,93.20
2022-09-24T11:32:47.710Z,93.10
2022-09-24T11:35:16.673Z,93.20
2022-09-24T11:38:02.244Z,92.90
2022-09-24T11:40:43.179Z,92.80
2022-09-24T11:43:26.118Z,92.70
2022-09-24T11:46:13.462Z,92.70
2022-09-24T11:48:58.340Z,92.80
2022-09-24T11:51:39.041Z,93.10
2022-09-24T11:54:19.367Z,93.40
2022-09-24T11:56:51.283Z,93.60
2022-09-24T11:59:28.188Z,93.90
2022-09-24T12:02:02.312Z,94.20
2022-09-24T12:04:40.496Z,94.70
2022-09-24T12:07:15.108Z,94.90
2022-09-24T12:09:51.551Z,95.20
2022-09-24T12:12:23.684Z,95.50
2022-09-24T12:14:55.528Z,95.70
2022-09-24T12:17:29.570Z,95.80
2022-09-24T12:20:02.123Z,95.90
2022-09-24T12:22:31.815Z,96.00
2022-09-24T12:25:01.837Z,96.10
2022-09-24T12:27:33.723Z,96.50
2022-09-24T12:30:30.265Z,96.30
2022-09-24T12:33:16.595Z,96.50
2022-09-24T12:36:03.156Z,96.80
2022-09-24T12:38:35.477Z,97.20
2022-09-24T12:41:04.314Z,97.50
2022-09-24T12:43:39.230Z,99.30
2022-09-24T12:46:10.415Z,98.90
2022-09-24T12:48:40.067Z,99.70
2022-09-24T12:51:12.850Z,99.90
2022-09-24T12:53:44.474Z,99.90
2022-09-24T12:56:13.536Z,99.90
2022-09-24T12:58:45.021Z,99.90
2022-09-24T13:01:16.076Z,99.90
2022-09-24T13:03:47.240Z,99.90
2022-09-24T13:06:33.714Z,99.90
2022-09-24T13:09:02.984Z,99.90
2022-09-24T13:11:38.667Z,99.90
2022-09-24T13:14:16.787Z,99.90
2022-09-24T13:16:48.343Z,99.90
2022-09-24T13:19:26.524Z,99.90
2022-09-24T13:22:00.150Z,99.90
2022-09-24T13:24:32.731Z,99.90
2022-09-24T13:27:11.698Z,99.90
2022-09-24T13:29:41.957Z,99.90
2022-09-24T13:32:17.375Z,99.90
2022-09-24T13:34:48.457Z,99.90
2022-09-24T13:37:23.990Z,99.90
2022-09-24T13:40:01.558Z,99.90
2022-09-24T13:42:44.455Z,99.90
2022-09-24T13:45:17.222Z,99.90
2022-09-24T13:47:48.350Z,99.90
2022-09-24T13:50:17.622Z,99.90
2022-09-24T13:52:50.100Z,99.90
2022-09-24T13:55:25.221Z,99.90
2022-09-24T13:57:54.023Z,99.90
2022-09-24T14:00:27.348Z,99.90
2022-09-24T14:03:04.682Z,99.90
2022-09-24T14:05:38.128Z,99.90
2022-09-24T14:08:13.573Z,99.90
2022-09-24T14:10:42.434Z,99.90
2022-09-24T14:13:11.623Z,99.90
2022-09-24T14:15:40.534Z,99.90
2022-09-24T14:18:16.251Z,99.90
2022-09-24T14:20:45.335Z,99.90
2022-09-24T14:23:19.482Z,99.90
2022-09-24T14:25:49.862Z,99.90
2022-09-24T14:28:19.043Z,99.90
2022-09-24T14:30:52.004Z,99.90
2022-09-24T14:33:22.860Z,99.90
2022-09-24T14:35:53.471Z,99.90
2022-09-24T14:38:25.012Z,99.90
2022-09-24T14:41:08.156Z,99.90
2022-09-24T14:43:43.352Z,99.90
2022-09-24T14:46:18.705Z,99.90
2022-09-24T14:48:47.618Z,99.90
2022-09-24T14:51:26.064Z,99.90
2022-09-24T14:54:05.788Z,99.90
2022-09-24T14:56:36.260Z,99.90
2022-09-24T14:59:15.057Z,99.90
2022-09-24T15:01:45.022Z,99.90
2022-09-24T15:04:19.979Z,99.90
2022-09-24T15:06:49.642Z,99.90
2022-09-24T15:09:27.257Z,99.90
2022-09-24T15:12:18.938Z,99.90
2022-09-24T15:14:58.029Z,99.90
2022-09-24T15:17:34.101Z,99.90
2022-09-24T15:20:03.693Z,99.90
2022-09-24T15:22:32.779Z,99.90
2022-09-24T15:25:02.465Z,99.90
2022-09-24T15:27:39.421Z,99.90
2022-09-24T15:30:09.572Z,99.90
2022-09-24T15:32:38.428Z,99.90
2022-09-24T15:35:10.698Z,99.90
2022-09-24T15:37:40.218Z,99.90
2022-09-24T15:40:24.094Z,99.90
2022-09-24T15:42:53.084Z,99.90
2022-09-24T15:45:23.248Z,99.90
2022-09-24T15:47:52.923Z,99.90
2022-09-24T15:50:22.732Z,99.90
2022-09-24T15:52:53.364Z,99.90
2022-09-24T15:55:23.488Z,99.90
2022-09-24T15:57:52.340Z,99.90
2022-09-24T16:00:22.638Z,99.90
2022-09-24T16:02:54.178Z,99.90
2022-09-24T16:05:24.252Z,99.90
2022-09-24T16:07:54.912Z,99.90
2022-09-24T16:10:23.816Z,99.90
2022-09-24T16:12:52.699Z,99.90
2022-09-24T16:15:22.804Z,99.90
2022-09-24T16:17:51.804Z,99.90
2022-09-24T16:20:21.190Z,99.90
2022-09-24T16:22:49.980Z,99.90
2022-09-24T16:25:21.248Z,99.90
2022-09-24T16:27:50.181Z,99.90
2022-09-24T16:30:19.412Z,99.90
2022-09-24T16:32:48.315Z,99.90
2022-09-24T16:35:17.195Z,99.90
2022-09-24T16:37:46.185Z,99.90
2022-09-24T16:40:15.010Z,99.90
2022-09-24T16:42:43.799Z,99.90
2022-09-24T16:45:13.706Z,99.90
2022-09-24T16:47:42.515Z,99.90
2022-09-24T16:50:11.471Z,99.90
2022-09-24T16:52:40.423Z,99.90
2022-09-24T16:55:09.632Z,99.90
2022-09-24T16:57:39.187Z,99.90
2022-09-24T17:00:10.080Z,99.90
2022-09-24T17:02:39.085Z,99.90
2022-09-24T17:05:08.229Z,99.90
2022-09-24T17:07:37.028Z,99.90
2022-09-24T17:10:15.361Z,99.90
2022-09-24T17:12:49.456Z,99.90
2022-09-24T17:15:20.484Z,99.90
2022-09-24T17:17:51.202Z,99.90
2022-09-24T17:20:20.764Z,99.90
2022-09-24T17:22:50.218Z,99.90
2022-09-24T17:25:19.143Z,99.90
2022-09-24T17:27:48.028Z,99.90
2022-09-24T17:30:17.346Z,99.90
2022-09-24T17:32:46.247Z,99.90
2022-09-24T17:35:15.990Z,99.90
2022-09-24T17:37:45.370Z,99.90
2022-09-24T17:40:15.897Z,99.90
2022-09-24T17:42:48.240Z,99.90
2022-09-24T17:45:17.071Z,99.90
2022-09-24T17:47:58.105Z,99.90
2022-09-24T17:50:27.194Z,99.90
2022-09-24T17:52:56.040Z,99.90
2022-09-24T17:55:24.965Z,99.90
2022-09-24T17:57:53.779Z,99.90
2022-09-24T18:00:22.597Z,99.90
2022-09-24T18:02:51.503Z,99.90
2022-09-24T18:05:20.396Z,99.90
2022-09-24T18:07:49.219Z,99.90
2022-09-24T18:10:19.394Z,99.90
2022-09-24T18:12:48.226Z,99.90
2022-09-24T18:15:17.074Z,99.90
2022-09-24T18:17:45.844Z,99.90
2022-09-24T18:20:14.772Z,99.90
2022-09-24T18:22:43.594Z,99.90
2022-09-24T18:25:12.490Z,99.90
2022-09-24T18:27:41.780Z,99.90
2022-09-24T18:30:12.824Z,99.90
2022-09-24T18:32:41.845Z,99.90
2022-09-24T18:35:11.075Z,99.90
2022-09-24T18:37:40.753Z,99.90
2022-09-24T18:40:09.998Z,99.90
2022-09-24T18:42:38.919Z,99.90
2022-09-24T18:45:08.115Z,99.90
2022-09-24T18:47:39.530Z,99.90
2022-09-24T18:50:10.182Z,99.90
2022-09-24T18:52:39.208Z,99.90
2022-09-24T18:55:08.129Z,99.90
2022-09-24T18:57:36.626Z,99.90
2022-09-24T19:00:05.404Z,99.90
2022-09-24T19:02:34.002Z,99.90
2022-09-24T19:05:02.580Z,99.90
2022-09-24T19:07:31.752Z,99.90
2022-09-24T19:10:00.494Z,99.90
2022-09-24T19:12:30.911Z,99.90
2022-09-24T19:15:01.487Z,99.90
2022-09-24T19:17:30.103Z,99.90
2022-09-24T19:20:00.210Z,99.90
2022-09-24T19:22:28.694Z,99.90
2022-09-24T19:24:57.151Z,99.90
2022-09-24T19:27:25.607Z,99.90
2022-09-24T19:29:54.930Z,99.90
2022-09-24T19:32:23.388Z,99.90
2022-09-24T19:34:51.954Z,99.90
2022-09-24T19:37:20.515Z,99.90
2022-09-24T19:39:49.039Z,99.90
2022-09-24T19:42:17.604Z,99.90
2022-09-24T19:44:46.171Z,99.90
2022-09-24T19:47:14.614Z,99.90
2022-09-24T19:49:43.063Z,99.90
2022-09-24T19:52:11.702Z,99.90
2022-09-24T19:54:40.472Z,99.90
2022-09-24T19:57:08.944Z,99.90
2022-09-24T19:59:38.011Z,99.90
2022-09-24T20:02:06.617Z,99.90
2022-09-24T20:04:35.711Z,99.90
2022-09-24T20:07:06.092Z,99.90
2022-09-24T20:09:34.809Z,99.90
2022-09-24T20:12:03.438Z,99.90
2022-09-24T20:14:33.757Z,99.90
2022-09-24T20:17:02.420Z,99.90
2022-09-24T20:19:30.876Z,99.90
2022-09-24T20:22:00.073Z,99.90
2022-09-24T20:24:28.787Z,99.90
2022-09-24T20:27:15.404Z,99.90
2022-09-24T20:29:44.691Z,99.90
2022-09-24T20:32:16.551Z,99.90
2022-09-24T20:34:45.059Z,99.90
2022-09-24T20:37:13.637Z,99.90
2022-09-24T20:39:42.136Z,99.90
2022-09-24T20:42:10.727Z,99.90
2022-09-24T20:44:39.238Z,99.90
2022-09-24T20:47:07.816Z,99.90
2022-09-24T20:49:36.513Z,99.90
2022-09-24T20:52:06.740Z,99.90
2022-09-24T20:54:36.908Z,99.90
2022-09-24T20:57:05.486Z,99.90
2022-09-24T20:59:33.996Z,99.90
2022-09-24T21:02:03.978Z,99.90
2022-09-24T21:04:32.524Z,99.90
2022-09-24T21:07:02.064Z,99.90
2022-09-24T21:09:30.887Z,99.90
2022-09-24T21:11:59.367Z,99.90
2022-09-24T21:14:30.011Z,99.90
2022-09-24T21:16:58.867Z,99.90
2022-09-24T21:19:30.099Z,99.90
2022-09-24T21:21:59.273Z,99.90
2022-09-24T21:24:31.492Z,99.90
2022-09-24T21:27:02.804Z,99.90
2022-09-24T21:29:31.265Z,99.90
2022-09-24T21:31:59.824Z,99.90
2022-09-24T21:34:28.392Z,99.90
2022-09-24T21:36:56.891Z,99.90
2022-09-24T21:39:27.711Z,99.90
2022-09-24T21:41:58.548Z,99.90
2022-09-24T21:44:27.415Z,99.90
2022-09-24T21:46:55.895Z,99.90
2022-09-24T21:49:24.439Z,99.90
2022-09-24T21:51:54.884Z,99.90
2022-09-24T21:54:23.451Z,99.90
2022-09-24T21:56:53.304Z,99.90
2022-09-24T21:59:39.760Z,99.90
2022-09-24T22:02:08.964Z,99.90
2022-09-24T22:04:37.865Z,99.90
2022-09-24T22:07:06.395Z,99.90
2022-09-24T22:09:35.121Z,99.90
2022-09-24T22:12:05.588Z,99.90
2022-09-24T22:14:35.759Z,99.90
2022-09-24T22:17:04.991Z,99.90
2022-09-24T22:19:33.544Z,99.90
2022-09-24T22:22:02.109Z,99.90
2022-09-24T22:24:30.672Z,99.90
2022-09-24T22:26:59.196Z,99.90
2022-09-24T22:29:27.693Z,99.90
2022-09-24T22:31:56.163Z,99.90
2022-09-24T22:34:42.931Z,99.90
2022-09-24T22:37:11.808Z,99.90
2022-09-24T22:39:40.400Z,99.90
2022-09-24T22:42:08.900Z,99.90
2022-09-24T22:44:37.360Z,99.90
2022-09-24T22:47:05.844Z,99.90
2022-09-24T22:49:34.343Z,99.90
2022-09-24T22:52:02.957Z,99.90
2022-09-24T22:54:31.646Z,99.90
2022-09-24T22:57:00.321Z,99.90
2022-09-24T22:59:28.832Z,99.90
2022-09-24T23:01:57.311Z,99.90
2022-09-24T23:04:25.883Z,99.90
2022-09-24T23:06:55.058Z,99.90
2022-09-24T23:09:23.647Z,99.90
2022-09-24T23:11:52.744Z,99.90
2022-09-24T23:14:21.231Z,99.90
2022-09-24T23:16:49.714Z,99.90
2022-09-24T23:19:19.572Z,99.90
2022-09-24T23:21:48.151Z,99.90
2022-09-24T23:24:20.694Z,99.90
2022-09-24T23:26:49.240Z,99.90
2022-09-24T23:29:17.734Z,99.90
2022-09-24T23:31:46.315Z,99.90
2022-09-24T23:34:15.354Z,99.90
2022-09-24T23:36:46.217Z,99.90
2022-09-24T23:39:14.892Z,99.90
2022-09-24T23:41:43.466Z,99.90
2022-09-24T23:44:12.148Z,99.90
2022-09-24T23:46:40.778Z,99.90
2022-09-24T23:49:09.297Z,99.90
2022-09-24T23:51:37.868Z,99.90
2022-09-24T23:54:06.382Z,99.90
2022-09-24T23:56:34.939Z,99.90
2022-09-24T23:59:03.580Z,99.90
